Time;durP1;ratioP1;P1;durP2;ratioP2;P2;SDS_P1;SDS_P2;PMS_P1;PMS_P2;Temp;Humidity;BMP_temperature;BMP_pressure;BME280_temperature;BME280_humidity;BME280_pressure;Samples;Min_cycle;Max_cycle;Signal;HPM_P1;HPM_P2
2022/04/25 00:02:22;;;;;;;11.15;7.00;;;;;;;10.26;66.53;100818.56;5042010;28;20206;-82
2022/04/25 00:04:47;;;;;;;11.35;6.88;;;;;;;10.18;66.45;100822.75;5043084;28;20029;-82
2022/04/25 00:07:12;;;;;;;13.73;7.50;;;;;;;10.11;66.41;100823.44;5043128;28;20334;-84
2022/04/25 00:09:38;;;;;;;10.75;6.65;;;;;;;10.06;66.62;100819.81;5042768;28;20017;-85
2022/04/25 00:12:04;;;;;;;10.77;6.78;;;;;;;10.02;66.48;100823.19;5041635;28;20036;-85
2022/04/25 00:14:29;;;;;;;12.10;6.82;;;;;;;9.99;66.79;100821.38;5042902;28;20161;-85
2022/04/25 00:16:56;;;;;;;9.77;6.43;;;;;;;9.96;66.79;100829.09;5042978;28;20049;-84
2022/04/25 00:19:25;;;;;;;13.43;6.80;;;;;;;9.87;66.89;100834.09;5041817;28;20316;-85
2022/04/25 00:21:53;;;;;;;11.20;6.90;;;;;;;9.81;66.99;100834.81;5041912;28;20037;-84
2022/04/25 00:24:19;;;;;;;11.88;7.50;;;;;;;9.76;67.30;100841.59;5042904;28;20055;-84
2022/04/25 00:26:45;;;;;;;11.02;7.53;;;;;;;9.73;67.46;100837.22;5042896;28;20029;-85
2022/04/25 00:29:11;;;;;;;11.98;7.47;;;;;;;9.69;67.48;100837.97;5041670;28;20053;-84
2022/04/25 00:31:37;;;;;;;11.82;7.50;;;;;;;9.66;67.45;100839.59;5043167;28;20089;-85
2022/04/25 00:34:03;;;;;;;13.25;7.60;;;;;;;9.63;67.67;100839.50;5042759;28;20215;-85
2022/04/25 00:36:28;;;;;;;12.85;7.55;;;;;;;9.62;67.71;100838.63;5042701;28;20028;-82
2022/04/25 00:38:53;;;;;;;13.43;7.50;;;;;;;9.58;67.71;100831.59;5042833;28;20025;-82
2022/04/25 00:41:18;;;;;;;15.07;7.97;;;;;;;9.51;68.15;100840.06;5042479;28;20028;-82
2022/04/25 00:43:44;;;;;;;11.63;7.15;;;;;;;9.47;68.10;100830.41;5041430;28;20108;-82
2022/04/25 00:46:23;;;;;;;13.15;7.50;;;;;;;9.42;67.48;100834.59;5042394;28;20021;-82
2022/04/25 00:48:48;;;;;;;16.75;7.90;;;;;;;9.40;68.03;100834.56;5042445;28;20032;-82
2022/04/25 00:51:14;;;;;;;14.93;7.68;;;;;;;9.39;68.20;100835.41;5042370;28;20017;-82
2022/04/25 00:53:40;;;;;;;15.07;7.90;;;;;;;9.30;68.58;100833.41;5042237;28;20025;-82
2022/04/25 00:56:07;;;;;;;12.80;7.95;;;;;;;9.30;68.29;100829.91;5028688;28;20307;-82
2022/04/25 00:58:33;;;;;;;24.02;7.50;;;;;;;9.23;68.69;100834.94;5042367;28;20048;-82
2022/04/25 01:00:59;;;;;;;13.25;7.90;;;;;;;9.17;68.63;100829.56;5042399;28;20230;-82
2022/04/25 01:03:24;;;;;;;13.27;8.13;;;;;;;9.14;68.94;100828.59;5041033;28;20040;-82
2022/04/25 01:05:49;;;;;;;13.27;7.72;;;;;;;9.12;68.72;100825.94;5042917;28;20017;-82
2022/04/25 01:08:15;;;;;;;16.20;8.45;;;;;;;9.09;68.87;100823.25;5042096;28;20044;-82
2022/04/25 01:10:41;;;;;;;14.68;8.15;;;;;;;9.03;68.96;100825.69;5042231;28;20115;-82
2022/04/25 01:13:06;;;;;;;15.07;8.82;;;;;;;8.98;69.14;100822.06;5041894;28;20038;-82
2022/04/25 01:15:31;;;;;;;14.63;8.18;;;;;;;8.95;69.28;100825.47;5042210;28;20029;-82
2022/04/25 01:17:57;;;;;;;16.92;8.68;;;;;;;8.88;69.69;100819.19;5041976;28;20025;-82
2022/04/25 01:20:22;;;;;;;14.38;8.32;;;;;;;8.91;69.68;100826.22;5042419;28;20025;-82
2022/04/25 01:27:15;;;;;;;12.00;7.97;;;;;;;8.86;69.61;100815.69;5045206;28;20180;-82
2022/04/25 01:28:29;;;;;;;12.57;8.60;;;;;;;8.77;70.23;100820.59;5046120;28;20036;-82
2022/04/25 01:30:54;;;;;;;12.35;7.90;;;;;;;8.75;70.40;100819.66;5046009;28;20234;-82
2022/04/25 01:33:19;;;;;;;12.15;8.32;;;;;;;8.72;70.94;100817.00;5046017;28;20093;-82
2022/04/25 01:35:45;;;;;;;15.50;8.98;;;;;;;8.69;70.67;100825.56;5046067;28;20056;-82
2022/04/25 01:38:10;;;;;;;14.85;9.05;;;;;;;8.65;70.43;100825.44;5046101;28;20018;-85
2022/04/25 01:40:35;;;;;;;13.70;8.95;;;;;;;8.61;70.94;100823.56;5046168;28;20045;-85
2022/04/25 01:43:02;;;;;;;15.85;8.82;;;;;;;8.58;70.86;100826.06;5046374;28;20022;-85
2022/04/25 01:45:28;;;;;;;14.60;8.63;;;;;;;8.53;71.26;100821.59;5046071;28;20033;-85
2022/04/25 01:47:53;;;;;;;14.88;9.57;;;;;;;8.51;70.81;100825.84;5045969;28;20030;-85
2022/04/25 01:50:18;;;;;;;13.95;8.77;;;;;;;8.47;70.95;100825.72;5045781;28;20017;-85
2022/04/25 01:52:44;;;;;;;16.85;9.23;;;;;;;8.45;70.89;100836.03;5045778;28;20133;-85
2022/04/25 01:55:09;;;;;;;17.33;9.27;;;;;;;8.45;71.07;100829.97;5045618;28;20026;-85
2022/04/25 01:57:34;;;;;;;19.23;9.18;;;;;;;8.40;70.72;100827.22;5045697;28;20287;-85
2022/04/25 02:00:00;;;;;;;16.60;9.57;;;;;;;8.40;71.02;100837.59;5045605;28;20029;-85
2022/04/25 02:02:25;;;;;;;17.00;9.25;;;;;;;8.35;71.18;100831.38;5045587;28;20209;-85
2022/04/25 02:04:51;;;;;;;14.68;9.25;;;;;;;8.34;71.58;100830.50;5045697;28;20287;-85
2022/04/25 02:07:17;;;;;;;16.63;9.95;;;;;;;8.28;71.52;100827.66;5045591;28;20033;-85
2022/04/25 02:09:42;;;;;;;16.08;9.50;;;;;;;8.25;71.52;100831.91;5045347;28;20056;-85
2022/04/25 02:12:08;;;;;;;16.25;10.00;;;;;;;8.26;71.13;100834.53;5045099;28;20099;-85
2022/04/25 02:14:34;;;;;;;14.63;9.48;;;;;;;8.26;71.24;100828.47;5045297;28;20028;-85
2022/04/25 02:17:00;;;;;;;17.40;9.77;;;;;;;8.23;71.75;100828.38;5043306;28;20021;-85
2022/04/25 02:19:26;;;;;;;18.10;10.43;;;;;;;8.22;72.14;100832.66;5043999;28;20028;-85
2022/04/25 02:21:52;;;;;;;15.30;9.43;;;;;;;8.22;72.13;100821.41;5045290;28;20100;-85
2022/04/25 02:24:18;;;;;;;18.75;10.27;;;;;;;8.19;71.88;100830.84;5044995;28;20075;-85
2022/04/25 02:26:43;;;;;;;16.23;9.57;;;;;;;8.16;72.08;100827.28;5043812;28;20021;-85
2022/04/25 02:29:09;;;;;;;17.08;10.35;;;;;;;8.09;72.53;100826.19;5044935;28;20028;-85
2022/04/25 02:31:34;;;;;;;16.58;10.48;;;;;;;8.08;72.71;100819.25;5044960;28;20021;-85
2022/04/25 02:33:59;;;;;;;15.55;10.07;;;;;;;8.05;72.53;100824.31;5043441;28;20064;-85
2022/04/25 02:36:24;;;;;;;17.90;11.02;;;;;;;8.01;72.41;100825.06;5044774;28;20088;-85
2022/04/25 02:38:50;;;;;;;14.90;10.00;;;;;;;7.99;73.05;100822.44;5044716;28;20290;-85
2022/04/25 02:41:16;;;;;;;18.95;10.85;;;;;;;7.97;72.78;100820.59;5043550;28;20017;-85
2022/04/25 02:43:43;;;;;;;16.38;10.35;;;;;;;7.98;72.72;100817.16;5043613;28;20085;-85
2022/04/25 02:46:13;;;;;;;17.45;10.32;;;;;;;7.98;72.41;100825.84;5043360;28;20026;-85
2022/04/25 02:48:40;;;;;;;16.27;10.10;;;;;;;7.99;72.00;100821.53;5044527;28;20280;-85
2022/04/25 02:51:07;;;;;;;16.38;10.30;;;;;;;7.95;72.11;100824.84;5043504;28;20025;-85
2022/04/25 02:53:32;;;;;;;18.38;10.02;;;;;;;7.91;72.16;100830.78;5044137;28;20048;-85
2022/04/25 02:55:58;;;;;;;16.17;10.00;;;;;;;7.83;72.11;100818.44;5031211;28;20033;-85
2022/04/25 02:58:24;;;;;;;18.40;10.13;;;;;;;7.75;72.30;100826.75;5044560;28;20021;-85
2022/04/25 03:00:51;;;;;;;16.20;10.65;;;;;;;7.68;72.99;100833.44;5044490;28;20026;-85
2022/04/25 03:03:18;;;;;;;15.93;10.63;;;;;;;7.64;72.65;100827.25;5044474;28;20013;-85
2022/04/25 03:05:45;;;;;;;17.38;10.68;;;;;;;7.62;73.03;100833.25;5043197;28;20064;-84
2022/04/25 03:08:12;;;;;;;15.27;10.00;;;;;;;7.56;72.44;100825.22;5044315;28;20026;-85
2022/04/25 03:10:38;;;;;;;16.17;9.88;;;;;;;7.56;72.67;100827.81;5044265;28;20025;-85
2022/04/25 03:13:08;;;;;;;17.35;10.32;;;;;;;7.51;72.70;100829.38;5044064;28;20243;-85
2022/04/25 03:15:34;;;;;;;17.38;11.20;;;;;;;7.52;73.54;100824.25;5044033;28;20157;-85
2022/04/25 03:18:01;;;;;;;17.20;11.18;;;;;;;7.49;73.25;100825.00;5042995;28;20089;-85
2022/04/25 03:20:29;;;;;;;17.80;10.63;;;;;;;7.48;72.51;100825.84;5044023;28;20047;-85
2022/04/25 03:22:55;;;;;;;17.23;10.77;;;;;;;7.46;73.24;100818.84;5044008;28;20030;-85
2022/04/25 03:25:21;;;;;;;20.20;11.10;;;;;;;7.47;73.54;100825.78;5043904;28;20209;-85
2022/04/25 03:27:46;;;;;;;16.42;10.57;;;;;;;7.43;73.74;100822.22;5044255;28;20025;-85
2022/04/25 03:30:11;;;;;;;15.90;11.13;;;;;;;7.43;72.41;100832.59;5042614;28;20065;-85
2022/04/25 03:32:37;;;;;;;16.75;10.90;;;;;;;7.42;73.32;100825.63;5044032;28;20157;-85
2022/04/25 03:35:03;;;;;;;18.40;10.95;;;;;;;7.44;73.06;100830.84;5043760;28;20018;-85
2022/04/25 03:37:30;;;;;;;18.67;11.40;;;;;;;7.42;72.38;100827.34;5042314;28;20095;-85
2022/04/25 03:39:57;;;;;;;19.23;11.48;;;;;;;7.41;73.58;100833.34;5043522;28;20021;-85
2022/04/25 03:42:24;;;;;;;17.77;11.57;;;;;;;7.38;73.49;100831.50;5043491;28;20026;-85
2022/04/25 03:44:50;;;;;;;18.23;11.30;;;;;;;7.33;72.74;100835.66;5042638;28;20029;-85
2022/04/25 03:47:16;;;;;;;17.85;11.07;;;;;;;7.30;72.89;100838.16;5043409;28;20266;-85
2022/04/25 03:49:41;;;;;;;19.00;11.00;;;;;;;7.25;72.91;100837.97;5043568;28;20287;-85
2022/04/25 03:52:07;;;;;;;16.05;10.88;;;;;;;7.24;73.24;100843.09;5043489;28;20025;-85
2022/04/25 03:57:16;;;;;;;16.02;10.52;;;;;;;7.18;72.24;100840.28;5043302;28;20067;-85
2022/04/25 03:59:42;;;;;;;17.13;11.18;;;;;;;7.18;72.29;100838.56;5042023;28;20025;-85
2022/04/25 04:02:08;;;;;;;15.70;10.38;;;;;;;7.13;72.61;100843.56;5043263;28;20227;-85
2022/04/25 04:04:33;;;;;;;19.88;11.13;;;;;;;7.09;73.19;100836.50;5043232;28;20177;-86
2022/04/25 04:06:59;;;;;;;17.83;11.43;;;;;;;7.07;72.41;100845.94;5042102;28;20307;-83
2022/04/25 04:12:09;;;;;;;17.10;11.68;;;;;;;6.99;72.43;100852.53;5042991;28;20116;-83
2022/04/25 04:14:35;;;;;;;18.15;12.00;;;;;;;6.96;72.89;100845.53;5043424;28;20025;-83
2022/04/25 04:17:01;;;;;;;17.70;11.60;;;;;;;6.93;72.91;100850.59;5042983;28;20049;-83
2022/04/25 04:19:26;;;;;;;18.00;12.00;;;;;;;6.91;73.35;100846.19;5043079;28;20030;-83
2022/04/25 04:21:52;;;;;;;17.52;11.30;;;;;;;6.95;73.05;100858.41;5041789;28;20147;-83
2022/04/25 04:24:18;;;;;;;20.15;11.85;;;;;;;6.96;74.08;100860.19;5042919;28;20085;-83
2022/04/25 04:26:43;;;;;;;20.38;12.25;;;;;;;6.93;74.75;100855.75;5042885;28;20032;-83
2022/04/25 04:29:09;;;;;;;18.30;11.60;;;;;;;6.93;74.53;100855.75;5042900;28;20045;-83
2022/04/25 04:31:34;;;;;;;21.02;12.68;;;;;;;6.89;74.56;100859.06;5042880;28;20025;-83
2022/04/25 04:33:59;;;;;;;24.77;13.43;;;;;;;6.88;74.85;100856.41;5041734;28;20028;-83
2022/04/25 04:36:26;;;;;;;22.20;13.07;;;;;;;6.86;75.86;100855.47;5041468;28;20028;-83
2022/04/25 04:38:51;;;;;;;26.58;14.38;;;;;;;6.84;76.52;100867.50;5042880;28;20025;-83
2022/04/25 04:41:17;;;;;;;22.88;14.13;;;;;;;6.84;76.68;100867.50;5041497;28;20024;-83
2022/04/25 04:43:42;;;;;;;22.98;14.70;;;;;;;6.85;76.50;100866.66;5041496;28;20056;-83
2022/04/25 04:46:07;;;;;;;22.75;14.32;;;;;;;6.83;76.85;100869.19;5042600;28;20045;-83
2022/04/25 04:48:33;;;;;;;24.65;14.82;;;;;;;6.87;77.29;100865.91;5041369;28;20099;-83
2022/04/25 04:50:58;;;;;;;24.77;14.50;;;;;;;6.88;77.15;100875.44;5042464;28;20280;-83
2022/04/25 04:53:23;;;;;;;26.58;14.60;;;;;;;6.87;78.00;100868.50;5035074;28;20065;-83
2022/04/25 04:55:49;;;;;;;28.08;14.65;;;;;;;6.90;77.92;100878.97;5038397;28;20028;-83
2022/04/25 04:58:15;;;;;;;26.30;14.73;;;;;;;6.91;77.85;100882.47;5042590;28;20021;-83
2022/04/25 05:00:44;;;;;;;24.52;14.65;;;;;;;6.89;77.95;100877.19;5041102;28;20057;-83
2022/04/25 05:03:09;;;;;;;;;;;;;;;7.01;75.20;100884.56;5041688;28;20172;-83
2022/04/25 05:05:35;;;;;;;25.13;14.48;;;;;;;6.95;78.33;100889.50;5042499;28;20191;-83
2022/04/25 05:08:02;;;;;;;22.38;14.15;;;;;;;6.96;78.48;100893.88;5042375;28;20295;-83
2022/04/25 05:10:27;;;;;;;25.65;14.30;;;;;;;6.98;78.97;100889.66;5042371;28;20041;-84
2022/04/25 05:12:54;;;;;;;27.45;14.30;;;;;;;7.01;79.44;100901.81;5042168;28;20235;-83
2022/04/25 05:15:20;;;;;;;24.35;15.00;;;;;;;7.02;79.61;100901.88;5042282;28;20037;-83
2022/04/25 05:17:50;;;;;;;27.23;15.38;;;;;;;7.04;79.47;100902.81;5041209;28;20029;-87
2022/04/25 05:20:15;;;;;;;;;;;;;;;7.17;76.57;100903.28;5041663;28;20022;-87
2022/04/25 05:22:44;;;;;;;25.77;14.20;;;;;;;7.15;79.45;100908.41;5041158;28;19905;-87
2022/04/25 05:25:10;;;;;;;24.52;14.65;;;;;;;7.19;79.71;100906.84;5041149;28;20040;-87
2022/04/25 05:27:35;;;;;;;24.45;15.00;;;;;;;7.22;79.93;100905.22;5040982;28;20044;-87
2022/04/25 05:30:01;;;;;;;26.08;15.70;;;;;;;7.28;79.94;100904.59;5042003;28;20036;-87
2022/04/25 05:32:26;;;;;;;27.50;15.88;;;;;;;7.30;79.92;100913.31;5042505;28;20064;-87
2022/04/25 05:34:51;;;;;;;27.90;15.90;;;;;;;7.33;80.04;100908.25;5042190;28;20021;-87
2022/04/25 05:37:17;;;;;;;30.50;16.15;;;;;;;7.36;79.88;100910.03;5042159;28;20025;-87
2022/04/25 05:39:42;;;;;;;26.90;15.95;;;;;;;7.39;80.12;100917.97;5041947;28;20034;-87
2022/04/25 05:42:07;;;;;;;29.98;17.13;;;;;;;7.42;80.61;100923.25;5042108;28;20331;-87
2022/04/25 05:44:33;;;;;;;28.67;16.10;;;;;;;7.44;80.66;100929.38;5041995;28;20029;-87
2022/04/25 05:46:58;;;;;;;26.48;15.95;;;;;;;7.46;80.56;100928.63;5040853;28;20026;-87
2022/04/25 05:52:08;;;;;;;30.40;16.48;;;;;;;7.59;80.96;100934.22;5042182;28;20048;-87
2022/04/25 05:54:34;;;;;;;27.52;16.63;;;;;;;7.60;80.77;100939.50;5028198;28;20085;-87
2022/04/25 05:57:00;;;;;;;27.88;17.02;;;;;;;7.65;81.08;100937.09;5041718;28;20064;-87
2022/04/25 05:59:25;;;;;;;27.23;16.80;;;;;;;7.70;81.09;100940.72;5040537;28;20163;-87
2022/04/25 06:01:53;;;;;;;31.30;17.27;;;;;;;7.73;81.16;100942.53;5040559;28;20030;-87
2022/04/25 06:04:19;;;;;;;30.30;17.55;;;;;;;7.77;80.78;100942.69;5041693;28;20022;-87
2022/04/25 06:06:44;;;;;;;31.02;18.27;;;;;;;7.80;80.81;100942.81;5040462;28;20018;-87
2022/04/25 06:09:09;;;;;;;33.88;18.20;;;;;;;7.84;81.05;100949.88;5043775;28;20033;-88
2022/04/25 06:11:34;;;;;;;33.05;18.10;;;;;;;7.90;81.13;100948.34;5045410;28;20013;-87
2022/04/25 06:14:02;;;;;;;29.77;18.10;;;;;;;7.94;80.71;100950.22;5043945;28;20119;-87
2022/04/25 06:16:27;;;;;;;33.35;18.90;;;;;;;7.96;80.94;100949.44;5045078;28;20056;-87
2022/04/25 06:18:53;;;;;;;35.55;19.08;;;;;;;8.01;80.94;100955.69;5043909;28;20025;-87
2022/04/25 06:21:18;;;;;;;33.40;19.60;;;;;;;8.07;80.91;100951.56;5045186;28;20052;-86
2022/04/25 06:23:43;;;;;;;38.58;19.42;;;;;;;8.10;80.67;100957.72;5045211;28;20037;-86
2022/04/25 06:26:09;;;;;;;33.67;18.98;;;;;;;8.14;80.73;100959.59;5043918;28;20013;-86
2022/04/25 06:28:34;;;;;;;38.38;20.20;;;;;;;8.18;80.99;100957.97;5044926;28;20029;-86
2022/04/25 06:31:00;;;;;;;40.20;20.98;;;;;;;8.22;80.58;100952.06;5044366;28;20303;-86
2022/04/25 06:33:25;;;;;;;38.25;20.90;;;;;;;8.27;80.92;100955.72;5043302;28;20053;-86
2022/04/25 06:35:50;;;;;;;39.10;21.27;;;;;;;8.32;81.09;100953.28;5044796;28;20092;-86
2022/04/25 06:38:18;;;;;;;43.30;21.33;;;;;;;8.38;81.05;100958.69;5043664;28;20099;-86
2022/04/25 06:40:44;;;;;;;39.72;21.50;;;;;;;8.43;81.41;100958.81;5044223;28;20034;-86
2022/04/25 06:43:10;;;;;;;44.55;22.65;;;;;;;8.47;81.13;100961.63;5044700;28;20021;-86
2022/04/25 06:45:35;;;;;;;45.50;22.45;;;;;;;8.51;80.99;100963.47;5045173;28;20109;-86
2022/04/25 06:48:01;;;;;;;40.60;21.90;;;;;;;8.59;80.52;100979.34;5043465;28;20025;-86
2022/04/25 06:50:27;;;;;;;46.63;23.00;;;;;;;8.62;80.66;100981.16;5044737;28;20235;-86
2022/04/25 06:52:52;;;;;;;48.30;24.35;;;;;;;8.65;80.51;100971.75;5044735;28;20051;-86
2022/04/25 06:55:19;;;;;;;44.80;23.02;;;;;;;8.67;80.80;100970.06;5042658;28;20179;-86
2022/04/25 06:57:44;;;;;;;49.35;23.65;;;;;;;8.74;80.75;100978.09;5043838;28;20257;-86
2022/04/25 07:00:11;;;;;;;47.83;24.60;;;;;;;8.77;80.71;100963.47;5044503;28;20045;-86
2022/04/25 07:02:36;;;;;;;51.15;24.48;;;;;;;8.83;80.51;100971.47;5044017;28;20029;-85
2022/04/25 07:05:04;;;;;;;48.67;23.88;;;;;;;8.87;80.71;100975.06;5044309;28;20047;-86
2022/04/25 07:07:30;;;;;;;54.25;25.23;;;;;;;8.93;79.98;100976.97;5044280;28;20153;-86
2022/04/25 07:09:55;;;;;;;57.45;26.77;;;;;;;8.93;79.67;100983.03;5044176;28;20095;-85
2022/04/25 07:12:20;;;;;;;53.35;25.60;;;;;;;8.94;79.72;100979.63;5044024;28;20033;-85
2022/04/25 07:14:46;;;;;;;54.83;26.60;;;;;;;8.97;79.59;100978.84;5044295;28;20256;-85
2022/04/25 07:17:12;;;;;;;53.88;25.85;;;;;;;9.00;79.43;100982.41;5044030;28;20089;-85
2022/04/25 07:19:39;;;;;;;58.42;27.30;;;;;;;9.03;79.47;100981.63;5043345;28;20021;-85
2022/04/25 07:30:18;;;;;;;62.53;27.83;;;;;;;9.12;79.38;100983.66;5042109;28;20020;-82
2022/04/25 07:32:44;;;;;;;66.35;28.83;;;;;;;9.17;79.71;100992.50;5043869;28;20029;-82
2022/04/25 07:35:09;;;;;;;66.97;29.50;;;;;;;9.17;79.81;100989.88;5042639;28;20092;-82
2022/04/25 07:37:35;;;;;;;68.47;29.48;;;;;;;9.18;79.04;100994.22;5043772;28;20294;-82
2022/04/25 07:40:02;;;;;;;74.18;29.80;;;;;;;9.20;79.01;100993.44;5043047;28;20029;-83
2022/04/25 07:42:29;;;;;;;71.88;30.38;;;;;;;9.22;78.95;100994.41;5042431;28;20413;-83
2022/04/25 07:44:54;;;;;;;66.30;30.17;;;;;;;9.22;79.29;100989.19;5043531;28;20021;-83
2022/04/25 07:47:20;;;;;;;72.10;31.00;;;;;;;9.23;78.69;100996.13;5043532;28;20172;-82
2022/04/25 07:49:45;;;;;;;76.20;31.05;;;;;;;9.25;78.99;100995.31;5043573;28;20021;-83
2022/04/25 07:52:10;;;;;;;75.28;31.45;;;;;;;9.23;78.91;101001.34;5043522;28;20212;-82
2022/04/25 07:54:36;;;;;;;77.47;32.05;;;;;;;9.24;78.66;101002.25;5043438;28;20089;-82
2022/04/25 07:57:03;;;;;;;78.65;32.13;;;;;;;9.25;79.14;101014.38;5043486;28;20268;-83
2022/04/25 07:59:29;;;;;;;75.85;30.92;;;;;;;9.23;79.29;101009.13;5043356;28;20346;-83
2022/04/25 08:01:54;;;;;;;89.90;33.13;;;;;;;9.25;80.38;101013.50;5043273;28;20205;-83
2022/04/25 08:04:20;;;;;;;87.43;34.17;;;;;;;9.25;80.47;101013.50;5043340;28;20243;-83
2022/04/25 08:06:45;;;;;;;89.30;34.10;;;;;;;9.27;81.57;101022.22;5043281;28;20026;-84
2022/04/25 08:09:10;;;;;;;84.25;34.63;;;;;;;9.26;82.11;101018.75;5043419;28;20025;-85
2022/04/25 08:11:36;;;;;;;95.18;35.65;;;;;;;9.26;82.54;101018.75;5043254;28;20021;-85
2022/04/25 08:19:31;;;;;;;97.78;37.28;;;;;;;9.20;83.04;101027.25;5042730;28;20064;-84
2022/04/25 08:21:57;;;;;;;92.45;35.45;;;;;;;9.18;83.29;101031.53;5042906;28;20092;-83
2022/04/25 08:24:22;;;;;;;95.68;35.42;;;;;;;9.18;84.15;101036.72;5042867;28;20029;-83
2022/04/25 08:26:47;;;;;;;99.18;37.42;;;;;;;9.19;84.11;101038.47;5042737;28;20032;-82
2022/04/25 08:29:13;;;;;;;98.22;36.33;;;;;;;9.20;83.78;101041.97;5042790;28;20128;-83
2022/04/25 08:31:38;;;;;;;100.50;37.40;;;;;;;9.16;84.60;101050.50;5041251;28;20207;-83
2022/04/25 08:34:06;;;;;;;99.35;36.97;;;;;;;9.14;84.43;101047.84;5041661;28;20167;-83
2022/04/25 08:36:32;;;;;;;98.93;36.65;;;;;;;9.14;84.76;101052.16;5042590;28;20056;-82
2022/04/25 08:38:58;;;;;;;99.30;37.22;;;;;;;9.13;84.38;101051.28;5042875;28;20078;-82
2022/04/25 08:41:44;;;;;;;94.53;36.13;;;;;;;9.13;84.48;101056.47;5041287;28;20045;-82
2022/04/25 08:44:11;;;;;;;95.40;34.80;;;;;;;9.13;84.70;101061.69;5041411;28;20095;-82
2022/04/25 08:46:39;;;;;;;95.50;35.33;;;;;;;9.12;85.04;101061.63;5041389;28;20021;-82
2022/04/25 08:49:05;;;;;;;97.50;35.97;;;;;;;9.11;85.37;101071.16;5042635;28;20051;-82
2022/04/25 08:51:33;;;;;;;90.28;35.08;;;;;;;9.11;84.84;101068.56;5035552;28;20196;-82
2022/04/25 08:53:59;;;;;;;97.10;35.95;;;;;;;9.11;84.89;101070.25;5034148;28;20017;-83
2022/04/25 08:56:26;;;;;;;87.70;34.55;;;;;;;9.11;85.05;101071.16;5042233;28;20073;-82
2022/04/25 08:58:53;;;;;;;83.10;34.72;;;;;;;9.11;85.02;101073.75;5042478;28;20036;-82
2022/04/25 09:01:18;;;;;;;79.68;33.47;;;;;;;9.11;85.07;101078.03;5042409;28;20025;-82
2022/04/25 09:03:43;;;;;;;83.40;33.75;;;;;;;9.10;85.53;101077.19;5042232;28;20360;-82
2022/04/25 09:06:09;;;;;;;75.50;33.20;;;;;;;9.10;85.45;101084.09;5040902;28;20029;-88
2022/04/25 09:08:35;;;;;;;75.18;33.05;;;;;;;9.08;86.00;101084.06;5040862;28;20072;-87
2022/04/25 09:13:45;;;;;;;69.65;31.40;;;;;;;9.09;85.98;101085.78;5042131;28;20048;-87
2022/04/25 09:16:15;;;;;;;63.28;30.27;;;;;;;9.12;86.03;101095.44;5042069;28;20250;-87
2022/04/25 09:18:41;;;;;;;64.05;29.73;;;;;;;9.11;85.96;101091.03;5042265;28;20022;-87
2022/04/25 09:21:06;;;;;;;60.63;29.52;;;;;;;9.12;86.23;101091.09;5042060;28;20025;-87
2022/04/25 09:23:32;;;;;;;58.83;28.95;;;;;;;9.14;86.33;101097.25;5042180;28;20028;-86
2022/04/25 09:26:14;;;;;;;58.70;28.95;;;;;;;9.16;85.46;101095.56;5040982;28;20041;-87
2022/04/25 09:29:05;;;;;;;58.20;27.95;;;;;;;9.17;85.18;101097.34;5042475;28;20022;-87
2022/04/25 09:31:31;;;;;;;53.53;27.23;;;;;;;9.16;86.19;101099.91;5038999;28;20207;-87
2022/04/25 09:34:14;;;;;;;50.50;26.70;;;;;;;9.18;85.66;101101.72;5042642;28;20051;-88
2022/04/25 09:36:46;;;;;;;49.60;26.35;;;;;;;9.18;86.30;101099.13;5042088;28;20047;-83
2022/04/25 09:39:28;;;;;;;45.25;25.95;;;;;;;9.20;86.18;101094.84;5042011;28;20106;-82
2022/04/25 09:41:53;;;;;;;47.05;25.05;;;;;;;9.20;87.02;101099.16;5042559;28;20028;-82
2022/04/25 09:44:18;;;;;;;42.22;22.95;;;;;;;9.19;86.65;101102.59;5045396;28;20045;-82
2022/04/25 09:46:50;;;;;;;40.42;22.48;;;;;;;9.20;86.67;101100.03;5050577;28;20025;-82
2022/04/25 09:49:20;;;;;;;39.15;22.02;;;;;;;9.22;87.04;101101.00;5049500;28;20029;-82
2022/04/25 09:52:02;;;;;;;37.15;21.23;;;;;;;9.22;86.54;101106.19;5053791;28;20021;-82
2022/04/25 09:54:28;;;;;;;36.38;21.50;;;;;;;9.25;86.77;101107.13;5051328;28;20067;-82
2022/04/25 09:56:54;;;;;;;34.83;20.95;;;;;;;9.30;87.29;101114.25;5047536;28;20025;-83
2022/04/25 09:59:21;;;;;;;33.88;20.02;;;;;;;9.31;87.39;101118.63;5045675;28;20029;-82
2022/04/25 10:02:02;;;;;;;30.60;19.23;;;;;;;9.34;86.65;101123.91;5045550;28;20085;-82
2022/04/25 10:04:32;;;;;;;32.47;19.10;;;;;;;9.34;86.51;101117.81;5045367;28;20049;-82
2022/04/25 10:07:03;;;;;;;32.63;19.75;;;;;;;9.33;86.61;101122.13;5044276;28;20244;-82
2022/04/25 10:09:30;;;;;;;30.95;19.50;;;;;;;9.34;86.41;101123.00;5045282;28;20331;-82
2022/04/25 10:12:01;;;;;;;27.50;18.08;;;;;;;9.34;86.73;101130.81;5043761;28;20022;-82
2022/04/25 10:14:27;;;;;;;31.73;19.23;;;;;;;9.36;87.06;101131.78;5045600;28;20313;-82
2022/04/25 10:16:56;;;;;;;28.70;18.55;;;;;;;9.35;86.42;101130.84;5045134;28;20033;-82
2022/04/25 10:19:25;;;;;;;27.45;17.40;;;;;;;9.35;86.14;101133.47;5045234;28;20026;-82
2022/04/25 10:21:55;;;;;;;27.48;17.95;;;;;;;9.35;86.14;101138.66;5045157;28;20036;-82
2022/04/25 10:24:20;;;;;;;27.15;17.67;;;;;;;9.35;86.38;101135.19;5045230;28;20029;-82
2022/04/25 10:26:47;;;;;;;26.80;18.33;;;;;;;9.35;86.34;101133.47;5045405;28;20029;-82
2022/04/25 10:29:21;;;;;;;27.55;18.65;;;;;;;9.36;86.39;101137.84;5045102;28;20076;-82
2022/04/25 10:31:48;;;;;;;25.45;16.90;;;;;;;9.38;86.00;101143.09;5044977;28;20064;-82
2022/04/25 10:34:15;;;;;;;27.67;17.85;;;;;;;9.38;86.01;101148.28;5044892;28;20025;-82
2022/04/25 10:36:45;;;;;;;26.02;17.42;;;;;;;9.38;86.19;101144.00;5044841;28;20237;-86
2022/04/25 10:39:17;;;;;;;27.48;18.02;;;;;;;9.41;86.48;101151.00;5045102;28;20163;-86
2022/04/25 10:44:28;;;;;;;27.08;18.27;;;;;;;9.45;86.51;101162.41;5044865;28;20105;-86
2022/04/25 10:47:06;;;;;;;27.45;17.95;;;;;;;9.45;86.20;101162.41;5044642;28;20343;-86
2022/04/25 10:49:32;;;;;;;24.42;16.63;;;;;;;9.46;87.39;101159.84;5044826;28;20240;-86
2022/04/25 10:51:58;;;;;;;26.20;17.92;;;;;;;9.45;86.88;101158.06;5044471;28;20033;-87
2022/04/25 10:54:27;;;;;;;25.60;17.33;;;;;;;9.48;87.04;101162.50;5044506;28;20017;-86
2022/04/25 10:57:08;;;;;;;23.27;15.88;;;;;;;9.50;86.11;101164.31;5044596;28;20031;-86
2022/04/25 10:59:34;;;;;;;25.52;16.02;;;;;;;9.50;86.19;101169.53;5044588;28;20036;-86
2022/04/25 11:01:59;;;;;;;25.58;16.90;;;;;;;9.51;86.31;101168.66;5044510;28;20037;-86
2022/04/25 11:04:26;;;;;;;24.10;16.75;;;;;;;9.53;86.63;101168.72;5044835;28;20034;-86
2022/04/25 11:07:21;;;;;;;23.15;16.13;;;;;;;9.54;85.80;101166.19;5044540;28;20132;-86
2022/04/25 11:09:47;;;;;;;21.92;15.30;;;;;;;9.55;85.31;101173.13;5043107;28;20203;-85
2022/04/25 11:12:13;;;;;;;22.88;15.38;;;;;;;9.53;85.16;101169.63;5043953;28;20038;-86
2022/04/25 11:15:01;;;;;;;25.52;16.48;;;;;;;9.55;85.09;101178.34;5043214;28;20021;-85
2022/04/25 11:17:28;;;;;;;23.95;15.38;;;;;;;9.56;85.86;101177.53;5043101;28;20041;-84
2022/04/25 11:19:55;;;;;;;22.88;14.98;;;;;;;9.56;85.44;101180.13;5043120;28;20025;-85
2022/04/25 11:22:31;;;;;;;22.85;15.05;;;;;;;9.58;85.67;101187.97;5044064;28;20025;-84
2022/04/25 11:25:17;;;;;;;24.63;16.38;;;;;;;9.60;86.15;101193.22;5042900;28;20180;-84
2022/04/25 11:28:01;;;;;;;26.00;16.00;;;;;;;9.61;85.42;101193.28;5043864;28;20287;-84
2022/04/25 11:30:27;;;;;;;23.75;15.30;;;;;;;9.60;85.93;101191.50;5043287;28;20080;-84
2022/04/25 11:32:52;;;;;;;24.40;16.95;;;;;;;9.60;86.27;101195.81;5043580;28;20234;-85
2022/04/25 11:35:23;;;;;;;26.60;17.15;;;;;;;9.62;85.71;101194.19;5042609;28;20048;-85
2022/04/25 11:37:48;;;;;;;26.90;17.30;;;;;;;9.63;86.94;101193.31;5043812;28;20029;-84
2022/04/25 11:40:14;;;;;;;27.45;17.27;;;;;;;9.68;87.65;101194.38;5043688;28;20045;-85
2022/04/25 11:42:40;;;;;;;27.23;17.77;;;;;;;9.71;86.66;101200.53;5043869;28;20091;-85
2022/04/25 11:45:06;;;;;;;29.77;17.70;;;;;;;9.73;86.17;101195.38;5042340;28;20018;-85
2022/04/25 11:47:33;;;;;;;28.90;17.58;;;;;;;9.77;86.39;101201.59;5042388;28;20153;-85
2022/04/25 11:50:01;;;;;;;26.85;17.75;;;;;;;9.79;85.97;101205.13;5043386;28;20327;-85